LEIB Airport Information

Runway Information
Runway 06 Length 9186 ft width 148 ft Elevation 13 ft Threshold N/A Heading 62
Runway 24 Length 9186 ft Width 148 ft Elevation 16 ft Threshold N/A Heading 242
Airport Frequencies
Type APP Name PALMA APP Frequency 118.125 MHZ
Type APP Name APP Frequency 119.8 MHZ
Type ATIS Name ATIS Frequency 117.8 MHZ
Type GND Name GND Frequency 121.8 MHZ
Type TWR Name TWR Frequency 118.5 MHZ
Airport Navaids
Type VOR-DME Name Ibiza Frequency 117800 KHZ
Type NDB Name Ibiza Frequency 394 KHZ
Airport Weather Information & NOTAM
ADDS - METARS form results

(0520 UTC 05 February 2023)
Data provider http://aviationweather.gov/metar/data/
 
METAR text: LEIB 050500Z 01005KT CAVOK 05/M01 Q1030 NOSIG
Conditions at: LEIB (IBIZA/ES CODOLA , ES) observed 0500 UTC 05 February 2023
Temperature: 5.0°C (41°F)
Dewpoint: -1.0°C (30°F) [RH = 65%]
Pressure (altimeter): 30.41 inches Hg (1030.0 mb)
Winds: from the N (10 degrees) at 6 MPH (5 knots; 2.6 m/s)
Visibility: 6 or more miles (10+ km)
Ceiling: ceiling and visibility are OK
Clouds: unknown
Weather: no significant weather observed at this time

METAR text: LEIB 050430Z 01004KT CAVOK 05/M01 Q1029 NOSIG
Conditions at: LEIB (IBIZA/ES CODOLA , ES) observed 0430 UTC 05 February 2023
Temperature: 5.0°C (41°F)
Dewpoint: -1.0°C (30°F) [RH = 65%]
Pressure (altimeter): 30.38 inches Hg (1029.0 mb)
Winds: from the N (10 degrees) at 5 MPH (4 knots; 2.1 m/s)
Visibility: 6 or more miles (10+ km)
Ceiling: ceiling and visibility are OK
Clouds: unknown
Weather: no significant weather observed at this time

Forecast for: LEIB (IBIZA/ES CODOLA , ES)
Text: TAF LEIB 050200Z 0503/0603 04009KT 9999 FEW020 TX16/0512Z TN05/0506Z
Forecast period: 0300 UTC 05 February 2023 to 0300 UTC 06 February 2023
Forecast type: FROM: standard forecast or significant change
Winds: from the NE (40 degrees) at 10 MPH (9 knots; 4.6 m/s)
Visibility: 6 or more miles (10+ km)
Ceiling: at least 12,000 feet AGL
Clouds: few clouds at 2000 feet AGL
Weather: no significant weather forecast for this period
Text: TEMPO 0509/0512 04015KT
Forecast period: 0900 to 1200 UTC 05 February 2023
Forecast type: TEMPORARY: The following changes expected for less than half the time period
Winds: from the NE (40 degrees) at 17 MPH (15 knots; 7.7 m/s)
Visibility: missing
Ceiling: unknown
Clouds: missing
Weather: no significant weather forecast for this period
Text: TEMPO 0523/0603 09010KT
Forecast period: 2300 UTC 05 February 2023 to 0300 UTC 06 February 2023
Forecast type: TEMPORARY: The following changes expected for less than half the time period
Winds: from the E (90 degrees) at 12 MPH (10 knots; 5.1 m/s)
Visibility: missing
Ceiling: unknown
Clouds: missing
Weather: no significant weather forecast for this period